Time;durP1;ratioP1;P1;durP2;ratioP2;P2;SDS_P1;SDS_P2;PMS_P1;PMS_P2;Temp;Humidity;BMP_temperature;BMP_pressure;BME280_temperature;BME280_humidity;BME280_pressure;Samples;Min_cycle;Max_cycle;Signal;HPM_P1;HPM_P2
2021/07/29 00:02:12;;;;;;;19.38;16.80;;;;;;;18.62;81.44;99086.78;5075873;28;20036;-75
2021/07/29 00:04:38;;;;;;;17.02;15.23;;;;;;;18.62;81.46;99080.66;5112145;28;20113;-74
2021/07/29 00:07:04;;;;;;;18.63;16.55;;;;;;;18.64;81.26;99078.78;5112339;28;20122;-76
2021/07/29 00:09:30;;;;;;;18.50;16.33;;;;;;;18.61;81.45;99074.53;5110511;28;20044;-77
2021/07/29 00:11:55;;;;;;;17.35;15.55;;;;;;;18.50;81.43;99048.78;5111376;28;20090;-79
2021/07/29 00:14:21;;;;;;;18.10;15.90;;;;;;;18.60;81.41;99053.53;5110087;28;20071;-75
2021/07/29 00:16:50;;;;;;;21.50;15.90;;;;;;;18.71;81.31;99074.03;5110517;28;20089;-79
2021/07/29 00:19:16;;;;;;;20.45;15.27;;;;;;;18.76;81.38;99072.00;5110918;28;20039;-75
2021/07/29 00:21:44;;;;;;;20.48;14.85;;;;;;;18.72;81.32;99058.16;5110017;28;20036;-79
2021/07/29 00:24:10;;;;;;;17.85;15.38;;;;;;;18.74;81.21;99063.31;5111560;28;20043;-78
2021/07/29 00:26:37;;;;;;;20.52;15.88;;;;;;;18.78;81.14;99059.59;5122475;28;20093;-76
2021/07/29 00:29:03;;;;;;;19.35;15.63;;;;;;;18.74;80.97;99055.41;5133473;28;20141;-79
2021/07/29 00:31:33;;;;;;;17.15;14.98;;;;;;;18.81;81.34;99056.78;5131702;28;20092;-76
2021/07/29 00:34:00;;;;;;;15.90;14.20;;;;;;;18.82;81.29;99053.22;5131760;28;20035;-75
2021/07/29 00:36:26;;;;;;;17.23;14.63;;;;;;;18.76;81.35;99035.94;5131941;28;20566;-78
2021/07/29 00:39:00;;;;;;;18.77;15.32;;;;;;;18.90;81.10;99050.16;5131800;28;20035;-78
2021/07/29 00:41:26;;;;;;;18.65;14.68;;;;;;;18.90;80.94;99052.81;5134369;27;20380;-78
2021/07/29 00:44:03;;;;;;;18.55;15.52;;;;;;;18.88;81.17;99046.75;5152956;27;20141;-76
2021/07/29 00:46:31;;;;;;;20.33;15.48;;;;;;;18.87;81.00;99045.06;5155650;27;20038;-77
2021/07/29 00:48:59;;;;;;;17.95;15.77;;;;;;;18.93;81.16;99045.56;5136824;27;20041;-74
2021/07/29 00:51:26;;;;;;;17.52;15.18;;;;;;;18.92;80.98;99045.66;5156107;27;20079;-77
2021/07/29 00:53:52;;;;;;;18.10;15.20;;;;;;;18.93;81.16;99034.19;5155813;27;20042;-76
2021/07/29 00:56:18;;;;;;;17.00;15.05;;;;;;;18.94;80.84;99027.97;5156298;27;20038;-75
2021/07/29 00:58:44;;;;;;;17.73;15.75;;;;;;;19.00;81.09;99040.81;5155987;27;20075;-79
2021/07/29 01:01:10;;;;;;;17.67;14.98;;;;;;;19.02;80.89;99030.22;5155883;27;20034;-74
2021/07/29 01:03:36;;;;;;;17.58;15.27;;;;;;;19.08;80.90;99029.88;5155577;27;20046;-74
2021/07/29 01:06:02;;;;;;;17.08;15.07;;;;;;;19.09;80.96;99032.41;5155631;27;20084;-77
2021/07/29 01:08:28;;;;;;;17.52;15.63;;;;;;;19.08;81.15;99021.97;5155850;27;20038;-75
2021/07/29 01:10:54;;;;;;;20.05;16.15;;;;;;;19.17;81.13;99025.88;5156027;27;20039;-75
2021/07/29 01:13:19;;;;;;;18.27;15.18;;;;;;;19.12;80.80;99018.19;5155845;27;20048;-76
2021/07/29 01:15:45;;;;;;;16.50;14.75;;;;;;;19.20;80.91;99030.97;5155546;27;20039;-74
2021/07/29 01:18:12;;;;;;;18.10;16.15;;;;;;;19.23;81.01;99029.00;5155794;27;20039;-76
2021/07/29 01:20:38;;;;;;;18.55;15.70;;;;;;;19.19;80.89;99019.56;5155167;27;20046;-75
2021/07/29 01:23:04;;;;;;;17.70;15.88;;;;;;;19.28;81.03;99026.09;5137760;27;20123;-75
2021/07/29 01:25:30;;;;;;;20.15;16.13;;;;;;;19.27;80.67;99025.25;5129637;27;20511;-77
2021/07/29 01:27:56;;;;;;;19.98;15.88;;;;;;;19.26;80.59;99015.66;5099771;27;20107;-75
2021/07/29 01:30:22;;;;;;;16.73;15.02;;;;;;;19.36;80.79;99018.59;5134880;27;20074;-77
2021/07/29 01:32:48;;;;;;;20.52;16.33;;;;;;;19.34;80.59;99009.91;5139666;27;20043;-74
2021/07/29 01:35:14;;;;;;;18.63;16.63;;;;;;;19.39;80.73;99017.56;5115508;27;20031;-74
2021/07/29 01:37:40;;;;;;;22.30;17.45;;;;;;;19.42;80.73;99014.75;5135374;27;20419;-76
2021/07/29 01:40:10;;;;;;;22.50;16.58;;;;;;;19.35;80.54;99008.13;5134680;27;20088;-75
2021/07/29 01:42:36;;;;;;;23.88;17.30;;;;;;;19.43;80.69;99013.81;5147652;27;20133;-75
2021/07/29 01:45:03;;;;;;;20.58;16.38;;;;;;;19.42;80.58;99017.38;5155336;27;20452;-77
2021/07/29 01:47:29;;;;;;;21.55;17.85;;;;;;;19.31;80.61;98996.91;5155159;27;20067;-77
2021/07/29 01:49:54;;;;;;;21.15;17.45;;;;;;;19.35;80.54;99003.72;5119429;27;20035;-78
2021/07/29 01:52:20;;;;;;;27.52;20.17;;;;;;;19.34;80.69;99004.66;5119363;27;20034;-75
2021/07/29 01:54:46;;;;;;;22.63;17.77;;;;;;;19.31;80.49;98990.81;5155211;27;20135;-77
2021/07/29 01:57:12;;;;;;;22.45;17.73;;;;;;;19.27;80.53;98998.88;5154175;27;20167;-77
2021/07/29 01:59:38;;;;;;;21.65;17.08;;;;;;;19.36;80.88;99015.09;5155142;27;20133;-78
2021/07/29 02:02:05;;;;;;;24.83;17.27;;;;;;;19.34;80.76;99009.91;5136191;27;20402;-76
2021/07/29 02:04:31;;;;;;;21.67;17.83;;;;;;;19.25;80.87;99000.75;5136565;27;20493;-78
2021/07/29 02:06:57;;;;;;;22.67;17.73;;;;;;;19.36;80.77;99017.72;5135927;27;20077;-74
2021/07/29 02:09:23;;;;;;;22.67;18.27;;;;;;;19.24;80.93;98990.28;5154304;27;20034;-78
2021/07/29 02:11:52;;;;;;;24.40;18.35;;;;;;;19.35;80.95;99010.75;5153759;27;20042;-76
2021/07/29 02:14:22;;;;;;;24.73;18.55;;;;;;;19.34;80.65;99009.91;5136174;27;20026;-77
2021/07/29 02:16:49;;;;;;;25.45;19.75;;;;;;;19.34;80.77;99003.78;5135343;27;20034;-75
2021/07/29 02:19:15;;;;;;;32.50;21.10;;;;;;;19.39;80.88;99017.56;5135333;27;20102;-75
2021/07/29 02:21:42;;;;;;;30.75;21.38;;;;;;;19.39;80.87;99020.19;5154140;27;20150;-78
2021/07/29 02:24:08;;;;;;;40.92;21.98;;;;;;;19.34;80.72;99003.78;5135503;27;20042;-79
2021/07/29 02:26:34;;;;;;;37.25;23.52;;;;;;;19.39;81.01;99012.28;5118548;27;20530;-75
2021/07/29 02:29:00;;;;;;;33.10;23.33;;;;;;;19.42;81.17;99017.38;5094447;28;20105;-78
2021/07/29 02:31:25;;;;;;;37.13;22.60;;;;;;;19.44;81.18;99012.00;5111213;28;20040;-78
2021/07/29 02:33:51;;;;;;;36.00;22.67;;;;;;;19.42;81.01;99006.84;5112340;28;20039;-78
2021/07/29 02:36:17;;;;;;;36.25;23.00;;;;;;;19.46;81.05;99005.72;5112773;28;20617;-79
2021/07/29 02:38:43;;;;;;;36.92;23.88;;;;;;;19.50;81.29;98999.34;5110813;28;20104;-79
2021/07/29 02:41:09;;;;;;;31.50;21.25;;;;;;;19.54;81.13;99006.09;5126525;28;20046;-75
2021/07/29 02:43:34;;;;;;;29.13;21.45;;;;;;;19.68;81.00;99020.28;5111590;28;20134;-79
2021/07/29 02:46:00;;;;;;;29.20;20.50;;;;;;;19.65;81.01;99008.13;5112538;28;20042;-79
2021/07/29 02:48:26;;;;;;;28.35;19.83;;;;;;;19.81;81.28;99018.63;5113179;28;20454;-77
2021/07/29 02:50:53;;;;;;;22.50;17.65;;;;;;;19.87;81.04;99017.38;5112807;28;20039;-76
2021/07/29 02:53:20;;;;;;;21.20;16.95;;;;;;;19.89;80.68;99020.00;5112180;28;20035;-75
2021/07/29 02:55:46;;;;;;;22.15;16.60;;;;;;;19.88;81.00;99019.13;5111871;28;20076;-76
2021/07/29 02:58:12;;;;;;;19.63;16.98;;;;;;;19.80;80.61;98995.81;5111848;28;20035;-76
2021/07/29 03:00:38;;;;;;;19.60;15.88;;;;;;;19.86;80.67;98995.44;5111421;28;20036;-76
2021/07/29 03:03:04;;;;;;;20.67;16.70;;;;;;;19.91;80.54;99005.75;5110984;28;20100;-76
2021/07/29 03:05:29;;;;;;;19.15;16.35;;;;;;;20.02;80.82;99016.53;5112047;28;20043;-78
2021/07/29 03:07:55;;;;;;;22.70;15.70;;;;;;;20.07;80.66;99024.16;5076973;28;20040;-77
2021/07/29 03:10:21;;;;;;;18.83;15.38;;;;;;;20.01;80.54;99008.66;5094470;28;20039;-78
2021/07/29 03:12:48;;;;;;;18.90;14.73;;;;;;;20.09;80.50;99027.56;5111798;28;20531;-79
2021/07/29 03:15:14;;;;;;;18.98;15.85;;;;;;;20.06;80.21;99019.81;5094416;28;20031;-77
2021/07/29 03:17:39;;;;;;;19.48;14.80;;;;;;;20.10;80.01;99017.81;5110732;28;20122;-77
2021/07/29 03:20:06;;;;;;;15.55;13.57;;;;;;;20.07;80.20;99024.16;5113202;28;20039;-77
2021/07/29 03:22:32;;;;;;;17.40;14.88;;;;;;;20.08;80.12;99025.03;5094805;28;20039;-78
2021/07/29 03:24:57;;;;;;;18.90;14.35;;;;;;;20.06;80.21;99021.63;5110859;28;20519;-74
2021/07/29 03:27:23;;;;;;;15.38;12.20;;;;;;;20.03;80.03;99027.91;5114627;28;20058;-75
2021/07/29 03:29:49;;;;;;;17.40;12.00;;;;;;;19.90;80.01;99013.78;5131478;27;20027;-75
2021/07/29 03:32:15;;;;;;;12.80;11.50;;;;;;;19.95;80.06;99030.19;5113465;27;20038;-80
2021/07/29 03:34:41;;;;;;;12.68;11.13;;;;;;;19.94;80.49;99034.59;5132272;27;20043;-78
2021/07/29 03:37:06;;;;;;;12.60;10.82;;;;;;;19.90;80.76;99021.69;5132483;27;20039;-80
2021/07/29 03:39:32;;;;;;;11.38;10.18;;;;;;;19.95;80.53;99036.31;5121917;28;20045;-76
2021/07/29 03:41:59;;;;;;;14.50;11.07;;;;;;;19.98;80.79;99027.34;5139122;27;20107;-79
2021/07/29 03:44:25;;;;;;;12.88;10.65;;;;;;;20.05;80.69;99041.03;5133855;27;20042;-78
2021/07/29 03:46:51;;;;;;;11.18;9.57;;;;;;;20.06;80.75;99043.56;5139686;27;20054;-76
2021/07/29 03:49:16;;;;;;;12.10;9.40;;;;;;;20.02;80.63;99026.22;5118300;28;20054;-75
2021/07/29 03:51:42;;;;;;;10.30;9.00;;;;;;;20.01;80.37;99040.34;5113963;27;20034;-75
2021/07/29 03:54:08;;;;;;;11.88;10.30;;;;;;;20.00;80.73;99043.94;5113834;28;20177;-77
2021/07/29 03:56:34;;;;;;;14.00;10.45;;;;;;;19.96;80.65;99039.81;5113370;28;20164;-79
2021/07/29 03:59:00;;;;;;;15.18;11.10;;;;;;;19.94;80.67;99041.69;5096888;28;20050;-76
2021/07/29 04:01:25;;;;;;;13.38;10.50;;;;;;;19.97;80.80;99047.63;5113706;28;20039;-75
2021/07/29 04:03:51;;;;;;;13.23;10.15;;;;;;;19.92;80.62;99038.28;5133228;28;20058;-75
2021/07/29 04:06:17;;;;;;;13.60;11.13;;;;;;;19.98;80.92;99045.81;5113298;28;20568;-76
2021/07/29 04:08:43;;;;;;;13.43;10.45;;;;;;;19.95;80.98;99038.09;5113056;28;20039;-75
2021/07/29 04:11:09;;;;;;;14.75;11.35;;;;;;;20.03;80.97;99046.41;5113972;28;20555;-75
2021/07/29 04:13:35;;;;;;;14.48;11.27;;;;;;;19.91;80.86;99023.38;5113881;28;20043;-76
2021/07/29 04:16:02;;;;;;;17.23;10.93;;;;;;;20.10;80.76;99042.47;5131766;28;20122;-78
2021/07/29 04:18:31;;;;;;;14.35;10.68;;;;;;;20.04;80.61;99026.97;5103812;27;20043;-74
2021/07/29 04:20:57;;;;;;;13.52;10.73;;;;;;;20.02;80.51;99020.94;5100202;27;20034;-76
2021/07/29 04:23:23;;;;;;;13.38;10.63;;;;;;;20.12;80.49;99037.94;5117325;27;20516;-74
2021/07/29 04:25:49;;;;;;;11.80;9.25;;;;;;;20.09;80.44;99019.63;5117110;27;20130;-78
2021/07/29 04:28:14;;;;;;;11.18;9.25;;;;;;;20.04;80.50;99013.78;5135384;27;20473;-78
2021/07/29 04:30:40;;;;;;;12.02;9.88;;;;;;;20.21;80.60;99044.44;5133986;27;20053;-78
2021/07/29 04:33:10;;;;;;;12.23;9.63;;;;;;;20.25;80.31;99043.31;5117393;27;20066;-76
2021/07/29 04:35:39;;;;;;;11.45;9.43;;;;;;;20.19;80.11;99027.84;5134420;27;20496;-79
2021/07/29 04:38:05;;;;;;;12.63;9.68;;;;;;;20.32;80.15;99030.59;5117528;27;20031;-78
2021/07/29 04:40:31;;;;;;;12.82;9.93;;;;;;;20.55;80.11;99041.50;5117425;27;20062;-79
2021/07/29 04:42:57;;;;;;;13.75;9.65;;;;;;;20.45;79.89;99015.66;5138201;27;20248;-79
2021/07/29 04:45:22;;;;;;;11.65;9.15;;;;;;;20.67;79.70;99034.63;5120972;27;20038;-75
2021/07/29 04:47:51;;;;;;;12.23;8.98;;;;;;;20.67;79.22;99030.16;5120353;27;20434;-74
2021/07/29 04:50:20;;;;;;;13.68;9.77;;;;;;;20.75;79.38;99038.47;5156315;27;20046;-76
2021/07/29 04:52:49;;;;;;;12.45;9.15;;;;;;;20.77;78.99;99028.69;5140937;27;20388;-74
2021/07/29 04:55:15;;;;;;;11.95;10.18;;;;;;;20.88;79.08;99029.78;5144458;27;20055;-76
2021/07/29 04:57:41;;;;;;;12.38;9.98;;;;;;;20.84;78.45;99028.28;5156422;27;20605;-74
2021/07/29 05:00:07;;;;;;;12.65;9.48;;;;;;;21.01;78.34;99040.41;5132921;27;20178;-75
2021/07/29 05:02:33;;;;;;;12.00;10.02;;;;;;;21.07;78.17;99046.16;5135367;27;20031;-76
2021/07/29 05:04:59;;;;;;;13.30;9.95;;;;;;;21.09;77.80;99043.44;5150414;27;20054;-76
2021/07/29 05:07:25;;;;;;;14.68;10.95;;;;;;;21.07;77.81;99035.56;5135059;27;20046;-76
2021/07/29 05:09:51;;;;;;;12.85;10.13;;;;;;;21.12;77.44;99042.38;5098660;27;20412;-75
2021/07/29 05:12:17;;;;;;;18.63;14.77;;;;;;;21.09;77.06;99039.91;5115741;27;20076;-77
2021/07/29 05:14:44;;;;;;;23.58;18.65;;;;;;;21.14;77.24;99043.97;5115999;27;20563;-76
2021/07/29 05:17:10;;;;;;;21.52;16.23;;;;;;;21.14;77.03;99040.47;5121390;27;20057;-77
2021/07/29 05:19:36;;;;;;;15.60;11.77;;;;;;;21.19;76.76;99027.81;5126633;27;20043;-78
2021/07/29 05:22:03;;;;;;;12.18;10.13;;;;;;;21.34;76.73;99049.75;5115744;27;20522;-77
2021/07/29 05:24:29;;;;;;;13.75;10.57;;;;;;;21.39;76.06;99045.03;5134465;27;20123;-76
2021/07/29 05:26:55;;;;;;;12.00;9.35;;;;;;;21.37;75.68;99039.81;5134718;27;20071;-77
2021/07/29 05:29:22;;;;;;;11.93;9.68;;;;;;;21.45;76.02;99049.88;5116806;27;20043;-75
2021/07/29 05:31:48;;;;;;;11.07;9.68;;;;;;;21.41;75.38;99050.22;5100356;27;20087;-76
2021/07/29 05:34:14;;;;;;;11.18;9.65;;;;;;;21.42;75.54;99060.69;5101328;27;20034;-76
2021/07/29 05:36:40;;;;;;;12.32;9.10;;;;;;;21.36;75.26;99032.00;5117129;27;20041;-80
2021/07/29 05:39:06;;;;;;;12.40;9.57;;;;;;;21.61;75.44;99056.88;5136632;27;20507;-77
2021/07/29 05:41:32;;;;;;;11.82;8.20;;;;;;;21.63;75.03;99021.41;5105236;27;20064;-77
2021/07/29 05:44:10;;;;;;;11.93;9.60;;;;;;;21.84;74.75;99041.25;5164383;27;20042;-76
2021/07/29 05:46:35;;;;;;;9.55;8.55;;;;;;;22.03;74.55;99043.47;5143874;27;20523;-76
2021/07/29 05:49:01;;;;;;;14.43;8.70;;;;;;;22.14;74.10;99033.00;5155553;27;20041;-75
2021/07/29 05:51:27;;;;;;;10.02;8.85;;;;;;;22.55;74.24;99045.16;5133464;27;20117;-78
2021/07/29 05:53:53;;;;;;;9.52;8.48;;;;;;;22.90;73.50;99034.78;5128745;27;20111;-80
2021/07/29 05:56:18;;;;;;;10.13;7.90;;;;;;;23.23;72.68;99038.63;5115238;27;20058;-74
2021/07/29 05:58:46;;;;;;;9.15;7.68;;;;;;;23.43;72.31;99043.31;5117561;27;20125;-77
2021/07/29 06:01:12;;;;;;;9.88;8.40;;;;;;;23.51;71.33;99037.41;5110052;27;20138;-77
2021/07/29 06:03:38;;;;;;;12.85;9.32;;;;;;;23.49;70.26;99051.78;5115595;27;20071;-79
2021/07/29 06:06:04;;;;;;;32.42;26.75;;;;;;;23.26;69.93;99039.25;5134246;27;20035;-75
2021/07/29 06:08:29;;;;;;;13.32;11.32;;;;;;;23.15;69.61;99047.97;5115967;27;20122;-77
2021/07/29 06:11:04;;;;;;;15.18;12.98;;;;;;;23.02;69.45;99052.47;5115569;27;20047;-76
2021/07/29 06:13:31;;;;;;;18.35;15.15;;;;;;;22.93;69.75;99040.72;5097440;27;20583;-76
2021/07/29 06:16:08;;;;;;;14.15;10.68;;;;;;;22.98;69.69;99035.09;5114952;27;20134;-76
2021/07/29 06:18:37;;;;;;;14.88;11.23;;;;;;;23.09;69.88;99051.06;5144842;27;20034;-78
2021/07/29 06:21:03;;;;;;;10.65;9.38;;;;;;;23.08;69.27;99038.75;5134173;27;20093;-76
2021/07/29 06:23:41;;;;;;;10.60;9.27;;;;;;;23.11;69.04;99045.66;5116545;27;20039;-76
2021/07/29 06:26:09;;;;;;;13.57;10.57;;;;;;;22.94;69.04;99020.34;5115021;27;20065;-76
2021/07/29 06:28:35;;;;;;;13.00;9.57;;;;;;;23.05;69.15;99040.78;5099430;27;20047;-78
2021/07/29 06:31:01;;;;;;;10.30;9.20;;;;;;;23.27;69.19;99053.38;5135395;27;20117;-78
2021/07/29 06:33:27;;;;;;;10.32;8.60;;;;;;;23.50;68.94;99049.00;5132886;27;20418;-77
2021/07/29 06:35:53;;;;;;;10.27;9.15;;;;;;;24.09;68.32;99051.72;5133375;27;20043;-77
2021/07/29 06:38:19;;;;;;;9.23;8.32;;;;;;;25.26;68.49;99033.63;5132389;27;20411;-76
2021/07/29 06:40:46;;;;;;;9.02;7.97;;;;;;;26.60;67.10;99047.25;5133212;27;20066;-78
2021/07/29 06:43:11;;;;;;;10.95;7.22;;;;;;;27.39;63.42;99044.78;5131941;27;20149;-77
2021/07/29 06:45:38;;;;;;;9.90;7.25;;;;;;;27.34;61.24;99034.53;5135016;27;20558;-76
2021/07/29 06:48:04;;;;;;;9.73;7.78;;;;;;;27.07;60.00;99044.03;5153228;27;20134;-76
2021/07/29 06:50:30;;;;;;;8.32;6.90;;;;;;;26.75;59.12;99051.25;5152525;27;20512;-77
2021/07/29 06:52:55;;;;;;;7.50;6.53;;;;;;;26.28;58.51;99043.75;5135426;27;20043;-77
2021/07/29 06:55:21;;;;;;;9.15;6.93;;;;;;;25.94;58.97;99053.78;5153250;27;20042;-75
2021/07/29 06:57:47;;;;;;;7.30;6.60;;;;;;;25.39;58.89;99049.44;5153740;27;20487;-76
2021/07/29 07:00:13;;;;;;;8.68;6.93;;;;;;;25.09;59.29;99053.63;5117747;27;20133;-77
2021/07/29 07:02:39;;;;;;;7.72;6.68;;;;;;;24.86;59.44;99059.00;5153271;27;20070;-75
2021/07/29 07:05:05;;;;;;;7.10;6.40;;;;;;;24.64;59.79;99063.34;5153869;27;20057;-77
2021/07/29 07:07:31;;;;;;;9.57;6.72;;;;;;;24.50;60.20;99052.97;5145259;27;20122;-75
2021/07/29 07:09:57;;;;;;;7.32;6.63;;;;;;;24.41;60.11;99051.00;5117554;27;20452;-78
2021/07/29 07:12:25;;;;;;;7.45;6.75;;;;;;;24.33;60.05;99070.22;5152933;27;20035;-77
2021/07/29 07:14:51;;;;;;;9.68;7.03;;;;;;;24.23;60.64;99070.09;5135082;27;20460;-77
2021/07/29 07:17:17;;;;;;;8.88;7.43;;;;;;;24.16;60.71;99059.09;5099891;27;20035;-77
2021/07/29 07:19:44;;;;;;;8.55;7.30;;;;;;;24.06;61.02;99064.28;5142543;27;20039;-75
2021/07/29 07:22:10;;;;;;;7.95;7.15;;;;;;;24.06;61.08;99066.94;5113862;27;20427;-77
2021/07/29 07:24:36;;;;;;;10.70;7.40;;;;;;;23.91;60.77;99058.28;5114818;27;20038;-76
2021/07/29 07:27:05;;;;;;;7.90;7.05;;;;;;;23.95;60.93;99066.03;5132943;27;20051;-76
2021/07/29 07:29:34;;;;;;;8.73;7.20;;;;;;;23.91;61.33;99060.13;5113991;27;20082;-76
2021/07/29 07:32:00;;;;;;;8.32;6.78;;;;;;;23.87;60.90;99074.59;5114051;27;20495;-76
2021/07/29 07:34:30;;;;;;;7.75;6.68;;;;;;;23.84;61.50;99065.03;5114378;27;20114;-74
2021/07/29 07:36:56;;;;;;;7.75;6.82;;;;;;;23.76;61.32;99059.47;5113972;27;20043;-77
2021/07/29 07:39:22;;;;;;;7.60;6.90;;;;;;;23.89;61.64;99054.06;5096782;27;20054;-75
2021/07/29 07:41:48;;;;;;;7.25;6.55;;;;;;;24.38;61.46;99059.25;5119260;27;20097;-75
2021/07/29 07:44:14;;;;;;;6.43;5.75;;;;;;;25.96;62.87;99055.34;5133856;27;20041;-77
2021/07/29 07:46:40;;;;;;;7.38;6.63;;;;;;;28.13;59.92;99055.84;5100114;27;20039;-76
2021/07/29 07:49:05;;;;;;;7.10;6.40;;;;;;;30.05;56.88;99040.69;5156559;27;20042;-75
2021/07/29 07:51:31;;;;;;;17.10;14.18;;;;;;;31.59;52.91;99031.81;5140131;27;20153;-74
2021/07/29 07:53:57;;;;;;;7.70;6.88;;;;;;;32.40;49.71;99029.19;5125146;27;20499;-76
2021/07/29 07:56:26;;;;;;;7.97;7.15;;;;;;;33.62;46.56;99023.25;5096183;28;20039;-76
2021/07/29 07:58:51;;;;;;;6.18;5.53;;;;;;;33.62;43.55;99023.25;5095451;28;20151;-77
2021/07/29 08:01:19;;;;;;;11.25;7.63;;;;;;;32.76;42.76;99031.38;5113995;28;20043;-79
2021/07/29 08:03:45;;;;;;;9.10;6.45;;;;;;;31.62;43.19;99039.53;5132031;28;20046;-75
2021/07/29 08:06:11;;;;;;;6.57;5.90;;;;;;;30.50;44.17;99052.16;5113607;28;20039;-77
2021/07/29 08:08:38;;;;;;;7.30;5.43;;;;;;;29.55;45.26;99046.66;5132018;28;20035;-76
2021/07/29 08:11:04;;;;;;;5.95;5.35;;;;;;;28.89;46.03;99062.03;5114611;28;20049;-77
2021/07/29 08:13:30;;;;;;;7.03;6.25;;;;;;;28.22;46.97;99060.34;5104526;28;20038;-75
2021/07/29 08:15:59;;;;;;;6.93;5.90;;;;;;;27.77;47.53;99051.97;5117436;28;20039;-77
2021/07/29 08:18:27;;;;;;;8.10;6.43;;;;;;;27.57;48.13;99061.81;5109370;27;20035;-77
2021/07/29 08:20:53;;;;;;;9.52;6.75;;;;;;;27.35;49.26;99052.22;5099235;28;20548;-75
2021/07/29 08:23:19;;;;;;;10.52;6.85;;;;;;;27.40;49.52;99063.31;5115816;28;20043;-76
2021/07/29 08:25:45;;;;;;;8.05;6.45;;;;;;;27.47;49.68;99056.47;5134055;28;20055;-77
2021/07/29 08:28:11;;;;;;;7.95;6.13;;;;;;;27.56;49.47;99060.13;5122686;27;20051;-76
2021/07/29 08:30:37;;;;;;;6.90;5.75;;;;;;;27.58;49.29;99060.81;5154727;27;20043;-78
2021/07/29 08:33:10;;;;;;;7.10;6.20;;;;;;;27.61;49.31;99054.34;5135636;27;20502;-77
2021/07/29 08:35:37;;;;;;;7.32;5.55;;;;;;;27.80;49.09;99059.69;5135124;27;20038;-76
2021/07/29 08:38:03;;;;;;;5.78;5.18;;;;;;;27.88;48.84;99069.66;5153795;27;20129;-77
2021/07/29 08:40:30;;;;;;;7.35;5.72;;;;;;;27.99;48.83;99060.66;5133885;27;20042;-74
2021/07/29 08:42:57;;;;;;;5.82;5.25;;;;;;;28.22;49.12;99065.69;5152113;27;20053;-80
2021/07/29 08:45:23;;;;;;;6.03;5.43;;;;;;;28.11;47.91;99067.53;5152914;27;20035;-75
2021/07/29 08:47:56;;;;;;;6.65;5.10;;;;;;;27.97;48.40;99070.63;5153420;27;20049;-79
2021/07/29 08:50:23;;;;;;;5.63;5.00;;;;;;;28.07;48.64;99060.75;5134819;27;20503;-76
2021/07/29 08:52:50;;;;;;;7.15;5.15;;;;;;;28.21;48.18;99070.19;5135803;27;20048;-76
2021/07/29 08:55:16;;;;;;;6.35;5.05;;;;;;;27.96;48.12;99059.09;5098885;28;20039;-77
2021/07/29 08:57:42;;;;;;;5.90;4.60;;;;;;;28.53;49.36;99082.31;5134973;28;20046;-76
2021/07/29 09:00:11;;;;;;;7.38;4.30;;;;;;;30.50;46.91;99051.31;5135460;27;20080;-75
2021/07/29 09:02:37;;;;;;;7.13;4.00;;;;;;;32.54;43.94;99065.31;5153453;27;20043;-76
2021/07/29 09:05:10;;;;;;;7.95;4.22;;;;;;;34.60;40.62;99048.56;5137459;27;20098;-77
2021/07/29 09:07:37;;;;;;;4.28;3.70;;;;;;;36.19;37.13;99044.09;5139228;27;20039;-76
2021/07/29 09:10:19;;;;;;;5.75;3.88;;;;;;;37.43;33.73;99036.03;5122941;27;20050;-76
2021/07/29 09:12:45;;;;;;;4.18;3.45;;;;;;;38.16;33.00;99039.78;5122067;27;20039;-75
2021/07/29 09:15:19;;;;;;;3.45;3.15;;;;;;;39.22;30.49;99034.09;5141406;27;20040;-75
2021/07/29 09:17:45;;;;;;;4.15;3.50;;;;;;;39.75;29.73;99034.78;5125264;27;20146;-76
2021/07/29 09:20:19;;;;;;;4.13;3.67;;;;;;;39.35;28.96;99035.91;5166872;27;20034;-76
2021/07/29 09:22:47;;;;;;;4.15;3.75;;;;;;;38.99;28.57;99043.66;5138583;27;20098;-74
2021/07/29 09:25:13;;;;;;;8.88;7.97;;;;;;;39.36;28.26;99045.75;5176855;27;20022;-75
2021/07/29 09:27:39;;;;;;;10.50;9.40;;;;;;;40.48;27.34;99044.09;5177442;27;20057;-76
2021/07/29 09:30:28;;;;;;;9.07;8.18;;;;;;;40.94;26.18;99030.91;5142029;27;20035;-75
2021/07/29 09:33:13;;;;;;;9.45;8.48;;;;;;;40.61;25.36;99032.16;5176680;27;20071;-77
2021/07/29 09:35:39;;;;;;;5.60;5.15;;;;;;;39.14;26.81;99042.53;5159061;27;20039;-76
2021/07/29 09:38:10;;;;;;;13.98;8.43;;;;;;;38.33;28.06;99052.88;5123772;27;20050;-76
2021/07/29 09:40:44;;;;;;;;;;;;;;;37.63;28.29;99046.91;5170270;27;20135;-77
2021/07/29 09:43:14;;;;;;;6.03;5.50;;;;;;;38.08;28.69;99048.13;5137099;27;20003;-77
2021/07/29 09:45:42;;;;;;;3.83;3.30;;;;;;;39.25;27.24;99038.28;5138383;27;20035;-77
2021/07/29 09:48:10;;;;;;;4.40;4.00;;;;;;;39.26;26.64;99034.50;5137772;27;20042;-76
2021/07/29 09:50:37;;;;;;;4.30;3.92;;;;;;;39.27;26.87;99022.56;5158008;27;20042;-77
2021/07/29 09:53:04;;;;;;;4.15;3.47;;;;;;;40.25;25.55;99022.16;5137690;27;20582;-78
2021/07/29 09:55:31;;;;;;;4.03;3.30;;;;;;;40.17;25.55;99029.53;5117662;27;20039;-74
2021/07/29 09:57:59;;;;;;;4.05;3.65;;;;;;;41.09;24.09;99022.34;5098825;27;20047;-77
2021/07/29 10:00:24;;;;;;;4.18;3.78;;;;;;;40.61;24.17;99023.19;5134320;27;20125;-80
2021/07/29 10:02:53;;;;;;;3.97;3.58;;;;;;;40.55;24.33;99016.75;5100348;27;20127;-77
2021/07/29 10:05:42;;;;;;;3.75;3.10;;;;;;;41.35;23.64;99017.53;5099749;27;20077;-77
2021/07/29 10:08:15;;;;;;;3.67;3.38;;;;;;;40.89;23.83;99022.59;5116898;27;20119;-78
2021/07/29 10:10:44;;;;;;;3.30;3.08;;;;;;;40.24;24.09;99025.94;5117684;27;20519;-77
2021/07/29 10:13:10;;;;;;;6.22;3.55;;;;;;;38.90;24.67;99012.34;5117261;27;20043;-76
2021/07/29 10:15:41;;;;;;;3.97;3.53;;;;;;;37.99;25.96;99017.66;5117237;27;20471;-75
2021/07/29 10:18:12;;;;;;;4.07;3.78;;;;;;;36.69;27.02;99024.97;5133289;27;20091;-78
2021/07/29 10:20:42;;;;;;;4.35;3.95;;;;;;;35.81;27.98;99026.31;5150544;27;20042;-77
2021/07/29 10:23:14;;;;;;;5.13;3.72;;;;;;;35.19;28.83;99022.47;5135324;27;20047;-78
2021/07/29 10:25:52;;;;;;;4.35;3.92;;;;;;;34.84;29.62;99033.91;5139831;27;20185;-77
2021/07/29 10:28:26;;;;;;;4.78;4.07;;;;;;;34.86;30.36;99033.72;5142626;27;20078;-75
2021/07/29 10:30:53;;;;;;;5.30;3.90;;;;;;;34.98;30.26;99024.94;5136090;27;20049;-76
2021/07/29 10:33:21;;;;;;;5.10;4.60;;;;;;;34.99;30.44;99031.19;5135035;27;20031;-75
2021/07/29 10:35:47;;;;;;;8.48;4.60;;;;;;;34.71;30.83;99029.19;5153686;27;20129;-75
2021/07/29 10:38:14;;;;;;;5.38;4.80;;;;;;;34.33;30.87;99031.97;5116932;27;20023;-75
2021/07/29 10:40:42;;;;;;;5.82;4.80;;;;;;;34.10;31.28;99032.91;5135628;27;20466;-78
2021/07/29 10:43:20;;;;;;;6.55;4.80;;;;;;;33.99;31.55;99045.00;5135876;27;20045;-77
2021/07/29 10:45:53;;;;;;;5.55;5.05;;;;;;;33.64;31.96;99026.63;5118135;27;20058;-76
2021/07/29 10:48:43;;;;;;;6.85;5.47;;;;;;;33.40;32.54;99035.72;5135946;27;20041;-78
2021/07/29 10:51:17;;;;;;;6.75;5.13;;;;;;;33.19;32.88;99034.50;5155317;27;20041;-78
2021/07/29 10:53:44;;;;;;;8.10;5.55;;;;;;;33.08;33.16;99028.69;5136332;27;20038;-76
2021/07/29 10:56:13;;;;;;;6.22;5.55;;;;;;;32.94;32.97;99032.97;5136832;27;20418;-77
2021/07/29 10:58:43;;;;;;;5.47;5.00;;;;;;;32.73;34.15;99032.56;5155202;27;20452;-77
2021/07/29 11:01:11;;;;;;;5.88;5.38;;;;;;;32.57;34.41;99022.72;5154756;27;20039;-77
2021/07/29 11:04:00;;;;;;;6.13;5.53;;;;;;;32.56;34.65;99031.81;5122729;27;20054;-79
2021/07/29 11:09:18;;;;;;;7.50;6.80;;;;;;;31.99;34.95;99032.78;5152883;27;20037;-75
2021/07/29 11:11:50;;;;;;;20.05;17.33;;;;;;;31.75;35.58;99029.13;5157722;27;20129;-77
2021/07/29 11:14:25;;;;;;;13.13;10.82;;;;;;;31.54;35.57;99025.06;5141439;27;20518;-78
2021/07/29 11:16:52;;;;;;;15.02;13.60;;;;;;;31.49;36.39;99024.72;5124085;27;20038;-76
2021/07/29 11:19:18;;;;;;;8.05;6.30;;;;;;;31.37;36.11;99023.41;5113087;27;20083;-77
2021/07/29 11:21:43;;;;;;;8.27;6.55;;;;;;;31.35;36.80;99018.19;5097630;27;20090;-77
2021/07/29 11:24:30;;;;;;;8.02;7.22;;;;;;;31.24;36.57;99026.59;5113597;27;20039;-77
2021/07/29 11:27:00;;;;;;;7.43;6.45;;;;;;;30.94;36.73;98994.78;5113918;27;20076;-77
2021/07/29 11:29:26;;;;;;;7.22;6.50;;;;;;;31.11;37.23;99018.97;5114175;27;20043;-78